createdAt,value
2018-08-10T00:01:34.919Z,16.88
2018-08-10T03:51:40.009Z,15.92
2018-08-10T03:52:39.986Z,15.92
2018-08-10T03:53:39.899Z,15.92
2018-08-10T03:54:40.006Z,15.88
2018-08-10T03:57:32.249Z,15.85
2018-08-10T03:58:31.885Z,15.80
2018-08-10T03:59:31.134Z,15.78
2018-08-10T04:00:31.116Z,15.80
2018-08-10T04:01:31.056Z,15.84
2018-08-10T04:02:31.051Z,15.76
2018-08-10T04:03:31.065Z,15.78
2018-08-10T04:04:31.071Z,15.76
2018-08-10T04:05:31.054Z,15.77
2018-08-10T04:06:31.004Z,15.76
2018-08-10T04:07:31.161Z,15.77
2018-08-10T04:08:30.978Z,15.77
2018-08-10T04:09:30.982Z,15.78
2018-08-10T04:10:31.048Z,15.62
2018-08-10T04:11:30.977Z,15.67
2018-08-10T04:12:30.937Z,15.68
2018-08-10T04:13:30.948Z,15.68
2018-08-10T04:14:30.989Z,15.66
2018-08-10T04:15:30.905Z,15.67
2018-08-10T04:16:30.901Z,15.67
2018-08-10T04:17:30.925Z,15.66
2018-08-10T04:18:30.916Z,15.59
2018-08-10T04:19:30.864Z,15.67
2018-08-10T04:20:30.870Z,15.55
2018-08-10T04:21:30.863Z,15.68
2018-08-10T04:22:30.883Z,15.62
2018-08-10T04:23:30.852Z,15.66
2018-08-10T04:24:30.804Z,15.56
2018-08-10T04:25:30.796Z,15.55
2018-08-10T04:26:30.784Z,15.60
2018-08-10T04:27:30.803Z,15.59
2018-08-10T04:28:30.768Z,15.67
2018-08-10T04:29:30.811Z,15.56
2018-08-10T04:30:30.761Z,15.58
2018-08-10T04:31:30.730Z,15.56
2018-08-10T04:32:30.718Z,15.56
2018-08-10T04:33:30.816Z,15.53
2018-08-10T04:34:30.694Z,15.55
2018-08-10T04:35:30.696Z,15.44
2018-08-10T04:36:30.696Z,15.41
2018-08-10T04:37:30.743Z,15.49
2018-08-10T04:38:30.762Z,15.49
2018-08-10T04:39:30.655Z,15.48
2018-08-10T04:40:30.663Z,15.38
2018-08-10T04:41:30.650Z,15.41
2018-08-10T04:42:39.381Z,15.40
2018-08-10T04:43:30.938Z,15.40
2018-08-10T04:44:30.703Z,15.43
2018-08-10T04:45:30.701Z,15.41
2018-08-10T04:46:30.791Z,15.35
2018-08-10T04:47:30.621Z,15.44
2018-08-10T04:48:30.620Z,15.41
2018-08-10T04:49:31.341Z,15.43
2018-08-10T04:50:30.523Z,15.41
2018-08-10T04:51:30.536Z,15.46
2018-08-10T04:52:30.522Z,15.41
2018-08-10T04:53:30.508Z,15.31
2018-08-10T04:54:30.484Z,15.44
2018-08-10T04:55:30.565Z,15.38
2018-08-10T04:56:30.448Z,15.31
2018-08-10T04:57:30.527Z,15.33
2018-08-10T04:58:30.442Z,15.41
2018-08-10T04:59:30.423Z,15.33
2018-08-10T05:00:30.509Z,15.40
2018-08-10T05:01:30.398Z,15.40
2018-08-10T05:02:30.450Z,15.34
2018-08-10T05:03:30.416Z,15.35
2018-08-10T05:04:30.365Z,15.40
2018-08-10T05:05:30.402Z,15.40
2018-08-10T05:06:30.347Z,15.40
2018-08-10T05:07:31.990Z,15.44
2018-08-10T05:08:30.317Z,15.40
2018-08-10T05:09:30.312Z,15.40
2018-08-10T05:10:30.291Z,15.40
2018-08-10T05:11:30.279Z,15.38
2018-08-10T05:12:30.890Z,15.41
2018-08-10T05:13:30.261Z,15.49
2018-08-10T05:14:30.257Z,15.40
2018-08-10T05:15:30.240Z,15.48
2018-08-10T05:16:30.230Z,15.40
2018-08-10T05:17:30.226Z,15.49
2018-08-10T05:19:47.530Z,15.41
2018-08-10T05:20:47.045Z,15.46
2018-08-10T05:21:47.168Z,15.44
2018-08-10T05:24:04.933Z,15.44
2018-08-10T05:25:04.990Z,15.44
2018-08-10T05:26:04.801Z,15.49
2018-08-10T05:27:04.724Z,15.51
2018-08-10T05:28:04.720Z,15.55
2018-08-10T05:29:04.719Z,15.52
2018-08-10T05:30:04.698Z,15.41
2018-08-10T05:31:04.735Z,15.41
2018-08-10T05:32:04.712Z,15.49
2018-08-10T05:33:04.648Z,15.46
2018-08-10T05:34:04.712Z,15.56
2018-08-10T05:35:04.641Z,15.56
2018-08-10T05:36:04.707Z,15.52
2018-08-10T05:37:04.612Z,15.60
2018-08-10T05:38:04.600Z,15.60
2018-08-10T05:39:05.426Z,15.59
2018-08-10T05:40:04.674Z,15.60
2018-08-10T05:41:04.611Z,15.60
2018-08-10T05:42:04.577Z,15.55
2018-08-10T05:43:04.639Z,15.59
2018-08-10T05:44:04.602Z,15.70
2018-08-10T05:45:04.526Z,15.68
2018-08-10T05:46:04.531Z,15.58
2018-08-10T05:47:04.712Z,15.67
2018-08-10T05:48:05.723Z,15.67
2018-08-10T05:49:04.482Z,15.67
2018-08-10T05:50:04.466Z,15.56
2018-08-10T05:51:04.542Z,15.59
2018-08-10T05:52:04.557Z,15.55
2018-08-10T05:53:04.666Z,15.62
2018-08-10T05:54:14.067Z,15.56
2018-08-10T05:55:05.232Z,15.66
2018-08-10T05:56:04.632Z,15.73
2018-08-10T05:58:24.596Z,15.77
2018-08-10T06:26:41.612Z,16.29
2018-08-10T06:27:41.643Z,16.30
2018-08-10T06:28:41.693Z,16.34
2018-08-10T06:30:52.902Z,16.33
2018-08-10T06:31:52.630Z,16.32
2018-08-10T06:32:52.428Z,16.40
2018-08-10T06:33:52.471Z,16.45
2018-08-10T06:34:52.388Z,16.45
2018-08-10T06:35:52.351Z,16.47
2018-08-10T06:36:52.292Z,16.59
2018-08-10T06:37:52.328Z,16.59
2018-08-10T06:38:52.374Z,16.62
2018-08-10T06:39:54.077Z,16.67
2018-08-10T06:40:52.239Z,16.69
2018-08-10T06:41:52.223Z,16.78
2018-08-10T06:42:52.213Z,16.77
2018-08-10T06:43:52.204Z,16.84
2018-08-10T06:44:52.473Z,16.84
2018-08-10T06:45:52.188Z,16.91
2018-08-10T06:46:52.202Z,16.98
2018-08-10T06:47:52.154Z,16.92
2018-08-10T06:48:52.156Z,16.96
2018-08-10T06:49:52.173Z,17.06
2018-08-10T06:50:52.139Z,17.03
2018-08-10T06:51:52.118Z,17.03
2018-08-10T06:52:52.112Z,17.09
2018-08-10T06:53:52.093Z,17.07
2018-08-10T06:54:52.110Z,17.06
2018-08-10T06:55:52.179Z,17.09
2018-08-10T06:56:52.073Z,17.10
2018-08-10T06:57:52.074Z,17.12
2018-08-10T06:58:52.039Z,17.12
2018-08-10T06:59:52.041Z,17.09
2018-08-10T07:00:52.064Z,17.17
2018-08-10T07:01:52.034Z,17.21
2018-08-10T07:02:52.077Z,17.21
2018-08-10T07:05:13.132Z,17.25
2018-08-10T07:06:12.766Z,17.39
2018-08-10T07:07:12.896Z,17.39
2018-08-10T07:08:15.447Z,17.46
2018-08-10T07:09:12.665Z,17.51
2018-08-10T07:10:12.777Z,17.57
2018-08-10T07:12:29.791Z,17.68
2018-08-10T07:13:29.667Z,17.76
2018-08-10T07:14:29.670Z,17.73
2018-08-10T07:15:29.477Z,17.83
2018-08-10T07:16:29.374Z,17.68
2018-08-10T07:17:29.364Z,17.73
2018-08-10T07:18:30.026Z,17.80
2018-08-10T07:19:30.147Z,17.83
2018-08-10T07:23:18.091Z,17.76
2018-08-10T07:24:16.192Z,17.79
2018-08-10T07:25:16.637Z,17.76
2018-08-10T07:26:18.248Z,17.81
2018-08-10T07:27:24.786Z,17.81
2018-08-10T07:28:16.770Z,17.83
2018-08-10T07:29:39.609Z,17.84
2018-08-10T07:30:16.145Z,17.94
2018-08-10T07:32:42.487Z,17.92
2018-08-10T07:33:42.451Z,17.99
2018-08-10T07:34:42.441Z,18.02
2018-08-10T07:35:42.428Z,18.17
2018-08-10T07:36:42.429Z,18.13
2018-08-10T07:37:42.409Z,18.53
2018-08-10T07:38:42.411Z,18.59
2018-08-10T07:39:42.386Z,18.56
2018-08-10T07:40:42.386Z,18.64
2018-08-10T07:41:42.371Z,18.65
2018-08-10T07:42:42.352Z,18.75
2018-08-10T07:43:42.371Z,18.86
2018-08-10T07:44:42.328Z,18.97
2018-08-10T07:45:42.324Z,18.97
2018-08-10T07:46:43.271Z,19.01
2018-08-10T07:47:42.304Z,19.05
2018-08-10T07:49:53.560Z,19.13
2018-08-10T07:50:53.162Z,19.15
2018-08-10T07:51:53.120Z,19.27
2018-08-10T07:52:53.125Z,19.31
2018-08-10T07:53:53.185Z,19.35
2018-08-10T07:54:53.338Z,19.38
2018-08-10T07:55:53.111Z,19.50
2018-08-10T07:56:53.050Z,19.47
2018-08-10T07:57:53.098Z,19.61
2018-08-10T07:58:53.110Z,19.67
2018-08-10T07:59:53.044Z,19.75
2018-08-10T08:00:54.021Z,19.71
2018-08-10T08:01:53.086Z,19.85
2018-08-10T08:02:53.770Z,20.02
2018-08-10T08:13:01.727Z,20.54
2018-08-10T08:14:01.598Z,20.35
2018-08-10T08:15:01.969Z,20.30
2018-08-10T08:16:01.406Z,20.20
2018-08-10T08:17:01.393Z,20.08
2018-08-10T08:18:01.596Z,20.02
2018-08-10T08:19:01.473Z,20.12
2018-08-10T08:20:01.504Z,20.13
2018-08-10T08:21:17.878Z,20.07
2018-08-10T08:22:11.825Z,20.16
2018-08-10T08:23:16.398Z,20.23
2018-08-10T08:24:01.363Z,20.20
2018-08-10T08:25:12.305Z,20.22
2018-08-10T08:26:01.358Z,20.26
2018-08-10T08:27:16.342Z,20.30
2018-08-10T08:28:01.296Z,20.53
2018-08-10T08:29:01.288Z,20.42
2018-08-10T08:30:11.555Z,20.44
2018-08-10T08:31:01.290Z,20.48
2018-08-10T08:32:01.313Z,20.71
2018-08-10T08:33:01.262Z,20.69
2018-08-10T08:34:01.197Z,20.73
2018-08-10T08:35:01.407Z,20.71
2018-08-10T08:36:01.286Z,20.71
2018-08-10T08:37:01.898Z,20.85
2018-08-10T08:38:01.168Z,20.73
2018-08-10T08:39:01.154Z,20.68
2018-08-10T08:40:01.180Z,20.48
2018-08-10T08:41:01.291Z,20.44
2018-08-10T08:42:01.225Z,20.66
2018-08-10T08:43:01.125Z,20.85
2018-08-10T08:44:01.109Z,20.75
2018-08-10T08:45:01.227Z,20.79
2018-08-10T08:46:01.325Z,20.83
2018-08-10T08:47:01.888Z,20.85
2018-08-10T08:48:01.109Z,20.87
2018-08-10T08:49:01.055Z,20.87
2018-08-10T08:50:01.077Z,20.88
2018-08-10T08:51:01.039Z,20.78
2018-08-10T08:52:01.130Z,20.88
2018-08-10T08:53:01.104Z,20.88
2018-08-10T08:54:01.135Z,21.08
2018-08-10T08:55:01.004Z,21.11
2018-08-10T08:56:01.046Z,21.09
2018-08-10T08:57:01.831Z,21.24
2018-08-10T08:59:39.525Z,21.74
2018-08-10T09:00:39.180Z,21.74
2018-08-10T09:01:39.093Z,21.98
2018-08-10T09:02:39.156Z,22.11
2018-08-10T09:03:39.937Z,22.05
2018-08-10T09:04:39.070Z,21.91
2018-08-10T09:05:39.076Z,21.73
2018-08-10T09:06:41.947Z,21.70
2018-08-10T09:07:39.217Z,21.66
2018-08-10T09:08:39.048Z,21.63
2018-08-10T09:09:39.039Z,21.64
2018-08-10T09:13:23.178Z,21.63
2018-08-10T09:15:53.672Z,21.59
2018-08-10T09:16:53.032Z,21.63
2018-08-10T09:17:53.059Z,21.79
2018-08-10T09:18:52.929Z,21.83
2018-08-10T09:19:52.893Z,21.96
2018-08-10T09:21:01.535Z,21.93
2018-08-10T09:21:53.058Z,21.74
2018-08-10T09:22:52.921Z,21.89
2018-08-10T09:28:05.259Z,22.08
2018-08-10T09:29:05.649Z,22.05
2018-08-10T09:30:04.799Z,21.98
2018-08-10T09:31:04.801Z,22.20
2018-08-10T09:32:04.787Z,22.29
2018-08-10T09:33:04.771Z,22.15
2018-08-10T09:34:04.798Z,22.11
2018-08-10T09:35:04.823Z,22.11
2018-08-10T09:36:04.750Z,21.91
2018-08-10T09:37:04.747Z,21.89
2018-08-10T09:38:04.742Z,22.05
2018-08-10T09:39:04.713Z,22.11
2018-08-10T09:40:04.757Z,21.99
2018-08-10T09:41:04.720Z,22.02
2018-08-10T09:42:04.931Z,22.09
2018-08-10T09:43:04.740Z,22.14
2018-08-10T09:44:04.689Z,22.26
2018-08-10T09:45:11.909Z,22.30
2018-08-10T09:46:05.815Z,22.49
2018-08-10T09:47:04.875Z,22.36
2018-08-10T09:48:05.921Z,22.42
2018-08-10T09:49:04.672Z,22.61
2018-08-10T09:50:04.636Z,22.72
2018-08-10T09:51:12.579Z,22.86
2018-08-10T09:52:04.680Z,22.85
2018-08-10T09:53:04.764Z,22.99
2018-08-10T09:54:05.137Z,22.99
2018-08-10T09:55:04.602Z,22.89
2018-08-10T09:56:04.573Z,22.85
2018-08-10T09:57:04.585Z,22.88
2018-08-10T09:58:04.678Z,22.78
2018-08-10T09:59:04.594Z,22.63
2018-08-10T10:00:04.629Z,22.54
2018-08-10T10:01:04.531Z,22.59
2018-08-10T10:02:04.509Z,22.57
2018-08-10T10:03:04.518Z,22.46
2018-08-10T10:04:04.544Z,22.56
2018-08-10T10:05:04.709Z,22.66
2018-08-10T10:06:04.475Z,22.94
2018-08-10T10:07:04.565Z,22.91
2018-08-10T10:08:04.564Z,23.12
2018-08-10T10:09:04.519Z,23.23
2018-08-10T10:10:04.498Z,23.23
2018-08-10T10:11:04.422Z,23.15
2018-08-10T10:12:04.426Z,23.14
2018-08-10T10:13:04.427Z,23.16
2018-08-10T10:14:04.410Z,23.15
2018-08-10T10:15:04.397Z,23.04
2018-08-10T10:16:05.149Z,23.06
2018-08-10T10:47:20.127Z,22.59
2018-08-10T10:48:27.930Z,22.42
2018-08-10T10:49:20.714Z,22.42
2018-08-10T10:50:19.867Z,22.33
2018-08-10T10:51:19.991Z,22.27
2018-08-10T10:52:19.698Z,22.39
2018-08-10T10:53:20.732Z,22.49
2018-08-10T10:56:15.965Z,23.11
2018-08-10T11:00:05.458Z,23.50
2018-08-10T11:01:04.485Z,23.41
2018-08-10T11:02:06.420Z,23.50
2018-08-10T11:03:04.402Z,23.47
2018-08-10T11:04:04.316Z,23.56
2018-08-10T11:05:04.343Z,23.56
2018-08-10T11:06:05.120Z,23.60
2018-08-10T11:07:04.333Z,23.77
2018-08-10T11:08:04.435Z,23.94
2018-08-10T11:09:04.292Z,24.15
2018-08-10T11:10:04.259Z,24.16
2018-08-10T11:11:04.277Z,24.42
2018-08-10T11:12:04.231Z,24.49
2018-08-10T11:13:04.302Z,24.66
2018-08-10T11:14:04.228Z,24.66
2018-08-10T11:15:04.229Z,24.63
2018-08-10T11:18:50.757Z,24.66
2018-08-10T11:21:55.405Z,24.33
2018-08-10T11:22:55.789Z,24.49
2018-08-10T11:23:54.716Z,24.48
2018-08-10T11:24:56.542Z,24.66
2018-08-10T11:25:55.164Z,24.49
2018-08-10T11:27:07.490Z,24.36
2018-08-10T11:27:55.082Z,24.24
2018-08-10T11:28:54.656Z,24.23
2018-08-10T11:33:22.337Z,24.56
2018-08-10T11:37:36.370Z,24.36
2018-08-10T11:40:27.840Z,24.63
2018-08-10T11:41:27.441Z,24.90
2018-08-10T11:42:27.455Z,24.97
2018-08-10T11:43:30.087Z,24.37
2018-08-10T11:44:27.433Z,24.55
2018-08-10T11:45:27.408Z,24.82
2018-08-10T11:46:27.376Z,24.74
2018-08-10T11:47:27.375Z,24.89
2018-08-10T11:48:27.412Z,24.75
2018-08-10T11:49:27.347Z,24.63
2018-08-10T11:50:27.388Z,24.75
2018-08-10T11:51:27.417Z,24.94
2018-08-10T11:52:40.394Z,25.20
2018-08-10T11:53:27.373Z,25.23
2018-08-10T11:54:27.425Z,25.17
2018-08-10T12:04:13.620Z,25.38
2018-08-10T12:05:15.619Z,25.56
2018-08-10T12:06:13.227Z,25.35
2018-08-10T12:07:13.758Z,25.24
2018-08-10T12:09:52.880Z,25.22
2018-08-10T12:12:12.395Z,25.23
2018-08-10T12:13:12.030Z,25.11
2018-08-10T12:14:12.604Z,24.97
2018-08-10T12:15:11.929Z,24.74
2018-08-10T12:18:01.527Z,24.51
2018-08-10T12:19:01.282Z,24.55
2018-08-10T12:20:01.085Z,24.51
2018-08-10T12:21:03.956Z,24.48
2018-08-10T12:22:01.088Z,24.59
2018-08-10T12:23:01.787Z,24.68
2018-08-10T12:24:01.047Z,24.77
2018-08-10T12:30:24.919Z,25.57
2018-08-10T12:31:24.512Z,25.81
2018-08-10T12:32:24.388Z,25.93
2018-08-10T12:33:24.448Z,26.16
2018-08-10T12:34:24.402Z,26.03
2018-08-10T12:35:24.332Z,26.04
2018-08-10T12:36:24.351Z,26.01
2018-08-10T12:37:37.914Z,25.71
2018-08-10T12:38:25.362Z,25.60
2018-08-10T12:39:24.374Z,25.08
2018-08-10T12:40:33.626Z,25.05
2018-08-10T12:41:24.380Z,24.99
2018-08-10T12:42:24.321Z,25.04
2018-08-10T12:43:24.377Z,25.12
2018-08-10T12:44:24.997Z,25.08
2018-08-10T12:45:24.248Z,25.16
2018-08-10T12:46:24.434Z,25.35
2018-08-10T12:48:36.345Z,25.45
2018-08-10T12:49:35.357Z,25.54
2018-08-10T12:50:35.626Z,25.42
2018-08-10T12:51:35.842Z,25.45
2018-08-10T12:53:12.682Z,25.56
2018-08-10T12:54:44.442Z,25.66
2018-08-10T12:55:43.875Z,25.78
2018-08-10T12:56:43.923Z,25.94
2018-08-10T12:57:45.685Z,25.75
2018-08-10T12:59:55.792Z,25.51
2018-08-10T13:00:55.901Z,25.34
2018-08-10T13:01:55.678Z,25.14
2018-08-10T13:02:56.249Z,24.92
2018-08-10T13:05:00.241Z,24.77
2018-08-10T13:05:59.948Z,24.70
2018-08-10T13:07:00.013Z,24.75
2018-08-10T13:07:59.982Z,24.64
2018-08-10T13:08:59.839Z,24.60
2018-08-10T13:09:59.884Z,24.74
2018-08-10T13:13:12.424Z,24.34
2018-08-10T13:14:12.240Z,24.19
2018-08-10T13:15:12.335Z,24.08
2018-08-10T13:16:12.225Z,24.05
2018-08-10T13:17:12.170Z,24.02
2018-08-10T13:18:12.191Z,24.19
2018-08-10T13:19:14.816Z,24.26
2018-08-10T13:21:39.636Z,24.26
2018-08-10T13:22:39.287Z,24.27
2018-08-10T13:23:39.262Z,24.31
2018-08-10T13:24:39.212Z,24.36
2018-08-10T13:25:39.126Z,24.56
2018-08-10T13:26:39.124Z,24.90
2018-08-10T13:27:39.103Z,25.09
2018-08-10T13:28:39.344Z,25.11
2018-08-10T13:29:39.095Z,25.11
2018-08-10T13:32:07.808Z,25.20
2018-08-10T13:33:08.735Z,25.42
2018-08-10T13:34:07.736Z,25.66
2018-08-10T13:35:07.720Z,25.83
2018-08-10T13:36:07.663Z,25.94
2018-08-10T13:37:07.677Z,25.78
2018-08-10T13:38:07.648Z,25.86
2018-08-10T13:39:07.739Z,25.71
2018-08-10T13:40:07.639Z,25.41
2018-08-10T13:41:07.619Z,25.26
2018-08-10T13:42:07.606Z,25.01
2018-08-10T13:43:09.548Z,25.02
2018-08-10T13:44:07.665Z,25.04
2018-08-10T13:45:10.615Z,24.97
2018-08-10T13:49:09.696Z,24.89
2018-08-10T13:50:05.662Z,24.70
2018-08-10T13:51:05.688Z,24.66
2018-08-10T13:52:05.603Z,24.61
2018-08-10T13:53:06.066Z,24.63
2018-08-10T13:54:05.404Z,24.75
2018-08-10T13:55:05.403Z,24.90
2018-08-10T13:56:05.423Z,24.98
2018-08-10T13:57:05.368Z,25.01
2018-08-10T13:58:05.395Z,25.02
2018-08-10T14:01:29.927Z,24.82
2018-08-10T14:02:29.260Z,24.39
2018-08-10T14:03:31.562Z,24.48
2018-08-10T14:07:41.948Z,24.19
2018-08-10T14:08:41.789Z,24.26
2018-08-10T14:09:41.868Z,24.37
2018-08-10T14:12:26.998Z,24.82
2018-08-10T14:13:26.450Z,24.86
2018-08-10T14:14:26.471Z,25.05
2018-08-10T14:16:37.691Z,25.35
2018-08-10T14:17:42.081Z,25.29
2018-08-10T14:18:38.223Z,25.11
2018-08-10T14:19:37.315Z,24.94
2018-08-10T14:27:43.606Z,25.02
2018-08-10T14:28:43.467Z,25.02
2018-08-10T14:29:43.494Z,24.83
2018-08-10T14:30:43.471Z,24.79
2018-08-10T14:33:20.777Z,24.97
2018-08-10T14:34:20.499Z,24.99
2018-08-10T14:35:20.363Z,25.01
2018-08-10T14:36:20.437Z,24.97
2018-08-10T14:37:20.460Z,25.01
2018-08-10T14:38:21.155Z,25.12
2018-08-10T14:39:30.849Z,25.05
2018-08-10T14:40:20.510Z,25.14
2018-08-10T14:41:20.504Z,25.17
2018-08-10T14:42:20.473Z,25.11
2018-08-10T14:43:21.202Z,25.17
2018-08-10T14:44:27.108Z,25.16
2018-08-10T14:45:20.253Z,25.19
2018-08-10T14:46:20.439Z,25.11
2018-08-10T14:47:20.394Z,25.08
2018-08-10T14:48:20.267Z,25.17
2018-08-10T14:49:20.246Z,25.24
2018-08-10T14:50:20.204Z,25.12
2018-08-10T14:51:20.475Z,25.05
2018-08-10T14:52:20.229Z,24.97
2018-08-10T14:53:20.215Z,24.77
2018-08-10T14:54:20.290Z,24.77
2018-08-10T15:03:39.338Z,24.68
2018-08-10T15:04:38.918Z,24.66
2018-08-10T15:05:38.781Z,24.61
2018-08-10T15:06:38.983Z,24.51
2018-08-10T15:07:38.808Z,24.46
2018-08-10T15:08:40.580Z,24.51
2018-08-10T15:09:39.373Z,24.48
2018-08-10T15:10:41.880Z,24.55
2018-08-10T15:11:38.816Z,24.30
2018-08-10T15:18:45.268Z,24.74
2018-08-10T15:21:09.147Z,24.87
2018-08-10T15:22:08.900Z,24.99
2018-08-10T15:23:08.757Z,25.19
2018-08-10T15:24:08.666Z,25.24
2018-08-10T15:25:09.874Z,25.45
2018-08-10T15:26:08.636Z,25.39
2018-08-10T15:27:08.875Z,25.42
2018-08-10T15:28:08.613Z,25.41
2018-08-10T15:29:08.803Z,25.08
2018-08-10T15:30:09.463Z,25.01
2018-08-10T15:32:56.897Z,24.93
2018-08-10T15:35:15.710Z,24.55
2018-08-10T15:36:17.417Z,24.36
2018-08-10T15:38:32.750Z,24.34
2018-08-10T15:47:58.238Z,24.64
2018-08-10T15:48:56.360Z,24.68
2018-08-10T15:49:56.452Z,24.70
2018-08-10T15:50:56.409Z,24.83
2018-08-10T15:51:56.355Z,24.83
2018-08-10T15:55:18.790Z,24.87
2018-08-10T15:56:18.009Z,24.74
2018-08-10T15:57:17.919Z,24.70
2018-08-10T15:58:17.919Z,24.66
2018-08-10T15:59:17.936Z,24.77
2018-08-10T16:00:17.839Z,24.75
2018-08-10T16:01:17.810Z,24.64
2018-08-10T16:02:17.818Z,24.53
2018-08-10T16:03:17.851Z,24.59
2018-08-10T16:07:37.424Z,24.56
2018-08-10T16:08:35.909Z,24.48
2018-08-10T16:09:36.087Z,24.48
2018-08-10T16:10:37.849Z,24.49
2018-08-10T16:11:36.720Z,24.56
2018-08-10T16:17:26.072Z,24.48
2018-08-10T16:18:25.244Z,24.37
2018-08-10T16:28:15.092Z,24.68
2018-08-10T16:29:14.613Z,24.67
2018-08-10T16:31:33.453Z,24.66
2018-08-10T16:33:48.107Z,24.59
2018-08-10T16:34:47.653Z,24.64
2018-08-10T16:35:47.615Z,24.53
2018-08-10T16:40:34.247Z,24.41
2018-08-10T16:41:34.183Z,24.30
2018-08-10T16:42:34.137Z,24.16
2018-08-10T16:47:32.160Z,23.87
2018-08-10T16:48:32.228Z,23.89
2018-08-10T16:49:32.049Z,23.86
2018-08-10T16:50:32.132Z,23.82
2018-08-10T16:51:32.099Z,23.89
2018-08-10T16:52:32.019Z,23.87
2018-08-10T16:53:32.004Z,23.81
2018-08-10T16:54:31.988Z,23.86
2018-08-10T16:55:32.036Z,23.84
2018-08-10T16:56:31.981Z,23.87
2018-08-10T16:57:31.964Z,23.79
2018-08-10T16:58:31.984Z,23.81
2018-08-10T16:59:31.943Z,23.87
2018-08-10T17:00:31.935Z,23.82
2018-08-10T17:01:31.938Z,23.81
2018-08-10T17:02:31.911Z,23.81
2018-08-10T17:03:31.893Z,23.82
2018-08-10T17:04:32.037Z,23.81
2018-08-10T17:05:31.880Z,23.79
2018-08-10T17:06:31.938Z,23.77
2018-08-10T17:07:31.928Z,23.71
2018-08-10T17:08:31.845Z,23.62
2018-08-10T17:09:31.840Z,23.64
2018-08-10T17:10:31.824Z,23.54
2018-08-10T17:11:31.841Z,23.39
2018-08-10T17:12:31.845Z,23.35
2018-08-10T17:13:31.839Z,23.21
2018-08-10T17:14:31.786Z,23.15
2018-08-10T17:15:31.811Z,23.12
2018-08-10T17:16:31.787Z,23.07
2018-08-10T17:17:31.811Z,23.06
2018-08-10T17:18:31.803Z,23.12
2018-08-10T17:19:41.155Z,23.11
2018-08-10T17:20:31.929Z,23.00
2018-08-10T17:28:45.956Z,22.70
2018-08-10T17:29:43.680Z,22.67
2018-08-10T17:30:43.758Z,22.60
2018-08-10T17:31:43.867Z,22.60
2018-08-10T17:32:43.640Z,22.49
2018-08-10T17:33:54.640Z,22.48
2018-08-10T17:34:43.698Z,22.59
2018-08-10T17:35:43.671Z,22.59
2018-08-10T17:36:44.368Z,22.60
2018-08-10T17:40:03.033Z,22.61
2018-08-10T17:49:04.913Z,22.52
2018-08-10T17:50:04.655Z,22.46
2018-08-10T17:51:04.590Z,22.51
2018-08-10T17:52:04.575Z,22.51
2018-08-10T17:53:04.553Z,22.41
2018-08-10T17:54:04.519Z,22.44
2018-08-10T17:55:04.503Z,22.44
2018-08-10T17:56:04.525Z,22.48
2018-08-10T17:57:04.560Z,22.44
2018-08-10T17:58:04.465Z,22.44
2018-08-10T17:59:04.561Z,22.33
2018-08-10T18:00:04.957Z,22.36
2018-08-10T18:01:04.445Z,22.33
2018-08-10T18:02:04.452Z,22.42
2018-08-10T18:03:04.527Z,22.39
2018-08-10T18:04:04.415Z,22.38
2018-08-10T18:05:04.396Z,22.31
2018-08-10T18:06:05.168Z,22.44
2018-08-10T18:07:04.383Z,22.29
2018-08-10T18:08:04.368Z,22.42
2018-08-10T18:09:04.371Z,22.33
2018-08-10T18:10:04.491Z,22.26
2018-08-10T18:11:04.338Z,22.31
2018-08-10T18:12:04.340Z,22.30
2018-08-10T18:13:04.314Z,22.30
2018-08-10T18:14:04.291Z,22.31
2018-08-10T18:15:04.284Z,22.35
2018-08-10T18:16:04.272Z,22.45
2018-08-10T18:17:04.283Z,22.46
2018-08-10T18:18:04.272Z,22.45
2018-08-10T18:19:04.263Z,22.45
2018-08-10T18:20:04.236Z,22.41
2018-08-10T18:22:21.363Z,22.45
2018-08-10T18:23:20.874Z,22.31
2018-08-10T18:24:20.895Z,22.36
2018-08-10T18:25:20.851Z,22.29
2018-08-10T18:26:20.841Z,22.30
2018-08-10T18:27:21.025Z,22.26
2018-08-10T18:28:20.850Z,22.29
2018-08-10T18:29:20.808Z,22.29
2018-08-10T18:30:20.801Z,22.23
2018-08-10T18:31:20.790Z,22.21
2018-08-10T18:32:20.800Z,22.14
2018-08-10T18:33:20.784Z,22.14
2018-08-10T18:34:20.769Z,22.11
2018-08-10T18:35:20.754Z,22.02
2018-08-10T18:36:20.746Z,22.05
2018-08-10T18:37:20.727Z,22.01
2018-08-10T18:38:20.730Z,21.99
2018-08-10T18:39:20.728Z,21.99
2018-08-10T18:40:20.743Z,21.96
2018-08-10T18:41:20.685Z,21.85
2018-08-10T18:42:20.669Z,21.99
2018-08-10T18:43:20.685Z,21.89
2018-08-10T18:44:20.654Z,21.93
2018-08-10T18:45:20.646Z,21.89
2018-08-10T18:46:20.641Z,21.75
2018-08-10T18:47:20.617Z,21.79
2018-08-10T18:48:20.606Z,21.70
2018-08-10T18:49:20.614Z,21.70
2018-08-10T18:50:20.590Z,21.67
2018-08-10T18:51:20.579Z,21.66
2018-08-10T18:52:20.607Z,21.71
2018-08-10T18:53:20.552Z,21.66
2018-08-10T18:54:20.646Z,21.64
2018-08-10T18:55:20.570Z,21.56
2018-08-10T18:56:20.521Z,21.46
2018-08-10T18:57:20.507Z,21.52
2018-08-10T18:58:20.548Z,21.48
2018-08-10T18:59:20.576Z,21.45
2018-08-10T19:00:20.496Z,21.48
2018-08-10T19:01:20.566Z,21.37
2018-08-10T19:02:20.453Z,21.30
2018-08-10T19:03:20.455Z,21.37
2018-08-10T19:04:20.431Z,21.22
2018-08-10T19:05:20.422Z,21.27
2018-08-10T19:06:20.423Z,21.28
2018-08-10T19:07:20.426Z,21.22
2018-08-10T19:08:20.404Z,21.11
2018-08-10T19:09:20.418Z,21.15
2018-08-10T19:10:20.365Z,21.15
2018-08-10T19:11:20.411Z,21.09
2018-08-10T19:12:20.437Z,21.08
2018-08-10T19:13:20.512Z,21.05
2018-08-10T19:14:20.397Z,20.91
2018-08-10T19:15:20.337Z,20.96
2018-08-10T19:16:20.300Z,20.85
2018-08-10T19:17:20.312Z,20.83
2018-08-10T19:18:20.304Z,20.88
2018-08-10T19:19:20.270Z,20.73
2018-08-10T19:20:20.268Z,20.69
2018-08-10T19:21:21.095Z,20.63
2018-08-10T19:22:20.239Z,20.58
2018-08-10T19:23:20.246Z,20.68
2018-08-10T19:24:20.213Z,20.58
2018-08-10T19:25:20.205Z,20.56
2018-08-10T19:26:20.221Z,20.42
2018-08-10T19:27:20.212Z,20.38
2018-08-10T19:28:20.167Z,20.38
2018-08-10T19:29:20.158Z,20.41
2018-08-10T19:30:20.196Z,20.33
2018-08-10T19:31:20.166Z,20.25
2018-08-10T19:32:20.139Z,20.35
2018-08-10T19:33:20.149Z,20.22
2018-08-10T19:34:20.507Z,20.23
2018-08-10T19:35:20.214Z,20.15
2018-08-10T19:36:20.089Z,20.13
2018-08-10T19:37:20.077Z,20.05
2018-08-10T19:38:20.190Z,20.12
2018-08-10T19:39:20.075Z,20.01
2018-08-10T19:40:20.041Z,20.02
2018-08-10T19:41:20.056Z,19.92
2018-08-10T19:42:20.043Z,19.89
2018-08-10T19:43:20.007Z,19.87
2018-08-10T19:44:20.044Z,19.87
2018-08-10T19:45:20.032Z,19.85
2018-08-10T19:46:20.048Z,19.82
2018-08-10T19:47:19.969Z,19.86
2018-08-10T19:48:19.974Z,19.83
2018-08-10T19:49:19.946Z,19.76
2018-08-10T19:50:19.930Z,19.72
2018-08-10T19:51:19.929Z,19.67
2018-08-10T19:52:19.918Z,19.58
2018-08-10T19:53:19.969Z,19.57
2018-08-10T19:54:19.884Z,19.57
2018-08-10T19:55:19.888Z,19.53
2018-08-10T19:56:19.890Z,19.47
2018-08-10T19:57:19.857Z,19.52
2018-08-10T19:58:19.880Z,19.47
2018-08-10T19:59:19.828Z,19.39
2018-08-10T20:00:19.829Z,19.38
2018-08-10T20:01:19.916Z,19.34
2018-08-10T20:02:19.902Z,19.35
2018-08-10T20:03:19.783Z,19.43
2018-08-10T20:04:19.775Z,19.31
2018-08-10T20:05:19.796Z,19.32
2018-08-10T20:06:19.761Z,19.31
2018-08-10T20:07:19.770Z,19.34
2018-08-10T20:08:19.781Z,19.28
2018-08-10T20:09:19.718Z,19.23
2018-08-10T20:10:19.712Z,19.27
2018-08-10T20:11:19.713Z,19.15
2018-08-10T20:12:19.752Z,19.21
2018-08-10T20:13:19.729Z,19.17
2018-08-10T20:14:19.665Z,19.07
2018-08-10T20:15:19.743Z,19.17
2018-08-10T20:16:19.641Z,19.05
2018-08-10T20:17:19.646Z,19.02
2018-08-10T20:18:19.666Z,18.94
2018-08-10T20:19:19.604Z,18.94
2018-08-10T20:20:19.603Z,18.96
2018-08-10T20:21:19.584Z,18.93
2018-08-10T20:22:19.574Z,18.94
2018-08-10T20:23:19.576Z,18.90
2018-08-10T20:24:19.621Z,18.82
2018-08-10T20:25:19.546Z,18.82
2018-08-10T20:26:19.530Z,18.78
2018-08-10T20:27:19.521Z,18.78
2018-08-10T20:28:19.679Z,18.71
2018-08-10T20:29:20.108Z,18.68
2018-08-10T20:30:19.497Z,18.57
2018-08-10T20:31:19.482Z,18.62
2018-08-10T20:32:19.523Z,18.64
2018-08-10T20:33:19.455Z,18.57
2018-08-10T20:34:19.459Z,18.54
2018-08-10T20:35:19.439Z,18.51
2018-08-10T20:36:19.420Z,18.56
2018-08-10T20:37:19.447Z,18.53
2018-08-10T20:38:19.401Z,18.47